Time;durP1;ratioP1;P1;durP2;ratioP2;P2;SDS_P1;SDS_P2;PMS_P1;PMS_P2;Temp;Humidity;BMP_temperature;BMP_pressure;BME280_temperature;BME280_humidity;BME280_pressure;Samples;Min_cycle;Max_cycle;Signal;HPM_P1;HPM_P2
2024/01/06 00:00:59;;;;;;;;;;;;;;;19.17;61.09;97108.88;2090526;28;20532;-65
2024/01/06 00:01:59;;;;;;;;;;;;;;;19.18;61.09;97115.88;2083967;28;19928;-64
2024/01/06 00:03:00;;;;;;;;;;;;;;;19.17;61.14;97115.06;2088820;28;20007;-65
2024/01/06 00:04:02;;;;;;;;;;;;;;;19.18;61.24;97113.19;2085815;28;20405;-65
2024/01/06 00:05:03;;;;;;;;;;;;;;;19.16;61.26;97113.41;2085904;28;19936;-65
2024/01/06 00:06:04;;;;;;;;;;;;;;;19.16;61.05;97109.94;2086890;28;20478;-65
2024/01/06 00:07:05;;;;;;;;;;;;;;;19.16;61.23;97115.31;2088775;28;19944;-65
2024/01/06 00:08:07;;;;;;;;;;;;;;;19.15;61.20;97111.81;2086342;28;20027;-64
2024/01/06 00:09:07;;;;;;;;;;;;;;;19.17;61.23;97116.94;2088464;28;20404;-65
2024/01/06 00:10:09;;;;;;;;;;;;;;;19.15;61.14;97105.63;2087077;28;19933;-65
2024/01/06 00:11:10;;;;;;;;;;;;;;;19.14;61.26;97104.81;2091034;28;19943;-65
2024/01/06 00:12:11;;;;;;;;;;;;;;;19.14;61.13;97104.81;2088484;28;19997;-64
2024/01/06 00:13:13;;;;;;;;;;;;;;;19.14;61.41;97109.38;2088232;28;19928;-65
2024/01/06 00:14:15;;;;;;;;;;;;;;;19.14;60.91;97099.44;2086214;28;20062;-64
2024/01/06 00:15:17;;;;;;;;;;;;;;;19.13;61.37;97097.78;2088773;28;19972;-64
2024/01/06 00:16:19;;;;;;;;;;;;;;;19.15;61.20;97097.56;2089999;28;19935;-64
2024/01/06 00:17:19;;;;;;;;;;;;;;;19.14;61.28;97093.25;2088995;28;19932;-65
2024/01/06 00:18:21;;;;;;;;;;;;;;;19.12;61.03;97092.69;2087251;28;19964;-65
2024/01/06 00:19:25;;;;;;;;;;;;;;;19.12;61.47;97093.47;2090018;28;19940;-64
2024/01/06 00:20:27;;;;;;;;;;;;;;;19.11;60.99;97089.19;2088724;28;19929;-64
2024/01/06 00:21:27;;;;;;;;;;;;;;;19.11;61.27;97083.81;2088544;28;20299;-65
2024/01/06 00:22:29;;;;;;;;;;;;;;;19.10;61.43;97086.72;2086451;28;19964;-61
2024/01/06 00:23:30;;;;;;;;;;;;;;;19.10;61.01;97081.34;2089848;28;20300;-64
2024/01/06 00:24:31;;;;;;;;;;;;;;;19.11;61.22;97085.66;2082387;28;20048;-64
2024/01/06 00:25:32;;;;;;;;;;;;;;;19.09;61.31;97080.53;2086256;28;19924;-64
2024/01/06 00:26:33;;;;;;;;;;;;;;;19.10;61.37;97081.34;2085926;28;19933;-64
2024/01/06 00:27:34;;;;;;;;;;;;;;;19.10;61.34;97079.47;2087870;28;19940;-64
2024/01/06 00:28:37;;;;;;;;;;;;;;;19.09;61.25;97079.72;2079637;28;20616;-65
2024/01/06 00:29:39;;;;;;;;;;;;;;;19.08;61.34;97075.38;2080811;28;19928;-65
2024/01/06 00:30:39;;;;;;;;;;;;;;;19.09;61.41;97079.72;2084394;28;19928;-66
2024/01/06 00:31:41;;;;;;;;;;;;;;;19.08;61.09;97076.19;2086587;28;19932;-65
2024/01/06 00:32:41;;;;;;;;;;;;;;;19.07;61.28;97071.91;2089135;28;20028;-64
2024/01/06 00:33:43;;;;;;;;;;;;;;;19.06;61.25;97072.97;2088555;28;19932;-65
2024/01/06 00:34:44;;;;;;;;;;;;;;;19.05;61.54;97071.31;2082531;28;19932;-65
2024/01/06 00:35:45;;;;;;;;;;;;;;;19.07;61.19;97076.47;2089195;28;19995;-65
2024/01/06 00:36:46;;;;;;;;;;;;;;;19.08;61.28;97078.09;2084323;28;19933;-65
2024/01/06 00:37:48;;;;;;;;;;;;;;;19.07;61.54;97071.09;2085222;28;19968;-65
2024/01/06 00:38:48;;;;;;;;;;;;;;;19.05;61.25;97068.63;2088764;28;19939;-65
2024/01/06 00:39:50;;;;;;;;;;;;;;;19.05;61.43;97071.31;2088419;28;20585;-65
2024/01/06 00:40:50;;;;;;;;;;;;;;;19.05;61.03;97073.19;2090158;28;20369;-65
2024/01/06 00:41:52;;;;;;;;;;;;;;;19.04;61.20;97075.06;2087951;28;20078;-65
2024/01/06 00:42:52;;;;;;;;;;;;;;;19.04;61.44;97076.94;2087783;28;19936;-65
2024/01/06 00:43:55;;;;;;;;;;;;;;;19.03;61.28;97078.00;2081538;28;19925;-65
2024/01/06 00:44:56;;;;;;;;;;;;;;;19.04;61.30;97087.69;2088453;28;19924;-65
2024/01/06 00:45:58;;;;;;;;;;;;;;;19.05;61.33;97078.56;2087953;28;19959;-66
2024/01/06 00:46:58;;;;;;;;;;;;;;;19.04;61.33;97069.69;2090859;28;19932;-65
2024/01/06 00:48:00;;;;;;;;;;;;;;;19.01;61.49;97074.75;2086497;28;20011;-65
2024/01/06 00:49:01;;;;;;;;;;;;;;;19.02;61.48;97077.19;2085710;28;19932;-65
2024/01/06 00:50:02;;;;;;;;;;;;;;;19.00;61.36;97073.09;2089138;28;20520;-64
2024/01/06 00:51:03;;;;;;;;;;;;;;;19.00;61.58;97075.78;2090422;28;20395;-65
2024/01/06 00:52:05;;;;;;;;;;;;;;;19.00;61.44;97070.41;2086298;28;19952;-65
2024/01/06 00:53:06;;;;;;;;;;;;;;;19.00;61.10;97075.78;2088841;28;19932;-65
2024/01/06 00:54:07;;;;;;;;;;;;;;;19.00;61.46;97062.38;2087917;28;20483;-65
2024/01/06 00:55:08;;;;;;;;;;;;;;;19.00;61.28;97057.81;2086865;28;20478;-65
2024/01/06 00:56:10;;;;;;;;;;;;;;;19.00;61.29;97068.56;2089436;28;19932;-64
2024/01/06 00:57:10;;;;;;;;;;;;;;;18.99;61.59;97064.25;2088385;28;19970;-64
2024/01/06 00:58:13;;;;;;;;;;;;;;;19.00;61.17;97065.06;2086947;28;19964;-65
2024/01/06 00:59:14;;;;;;;;;;;;;;;19.00;61.39;97065.06;2089862;28;19929;-65
2024/01/06 01:00:16;;;;;;;;;;;;;;;19.00;61.15;97062.38;2081165;28;19986;-64
2024/01/06 01:01:17;;;;;;;;;;;;;;;18.98;61.50;97051.88;2086811;28;19928;-65
2024/01/06 01:02:18;;;;;;;;;;;;;;;19.00;61.13;97044.41;2089253;28;20023;-65
2024/01/06 01:03:19;;;;;;;;;;;;;;;18.98;61.14;97041.94;2090543;28;21636;-65
2024/01/06 01:04:20;;;;;;;;;;;;;;;18.97;61.55;97036.78;2085267;28;20024;-64
2024/01/06 01:05:21;;;;;;;;;;;;;;;18.96;61.42;97036.00;2085430;28;19929;-65
2024/01/06 01:06:23;;;;;;;;;;;;;;;18.99;61.47;97048.13;2088853;28;20039;-65
2024/01/06 01:07:23;;;;;;;;;;;;;;;18.98;61.15;97036.56;2087949;28;24982;-65
2024/01/06 01:08:25;;;;;;;;;;;;;;;18.97;61.52;97040.31;2084147;28;20015;-64
2024/01/06 01:09:26;;;;;;;;;;;;;;;18.95;61.29;97029.00;2085695;28;19939;-65
2024/01/06 01:10:26;;;;;;;;;;;;;;;18.95;61.58;97031.69;2084644;28;19997;-65
2024/01/06 01:11:28;;;;;;;;;;;;;;;18.95;61.50;97030.88;2088201;28;19928;-65
2024/01/06 01:12:29;;;;;;;;;;;;;;;18.94;61.23;97022.00;2084543;28;19936;-62
2024/01/06 01:13:30;;;;;;;;;;;;;;;18.94;61.22;97024.69;2087778;28;19967;-64
2024/01/06 01:14:32;;;;;;;;;;;;;;;18.97;61.48;97020.69;2087104;28;19929;-64
2024/01/06 01:15:34;;;;;;;;;;;;;;;18.95;61.29;97020.94;2091416;28;19935;-64
2024/01/06 01:16:35;;;;;;;;;;;;;;;18.96;61.10;97027.94;2085205;28;20511;-65
2024/01/06 01:17:37;;;;;;;;;;;;;;;18.94;61.48;97019.31;2089432;28;19971;-64
2024/01/06 01:18:37;;;;;;;;;;;;;;;18.96;61.50;97014.50;2089985;28;19932;-64
2024/01/06 01:19:39;;;;;;;;;;;;;;;18.96;61.41;97011.81;2090472;28;21120;-64
2024/01/06 01:20:41;;;;;;;;;;;;;;;18.96;61.46;97011.81;2086219;28;19943;-65
2024/01/06 01:21:43;;;;;;;;;;;;;;;18.96;61.30;97017.19;2087430;28;19977;-65
2024/01/06 01:22:43;;;;;;;;;;;;;;;18.95;61.54;97014.75;2087075;28;19932;-64
2024/01/06 01:23:44;;;;;;;;;;;;;;;18.95;61.52;97007.50;2086546;28;19987;-65
2024/01/06 01:24:46;;;;;;;;;;;;;;;18.95;61.37;97012.88;2089787;28;20376;-65
2024/01/06 01:25:46;;;;;;;;;;;;;;;18.94;61.33;96995.13;2087729;28;19932;-65
2024/01/06 01:26:48;;;;;;;;;;;;;;;18.94;61.62;97013.09;2091242;28;19984;-65
2024/01/06 01:27:48;;;;;;;;;;;;;;;18.95;61.17;97006.69;2088060;28;19932;-65
2024/01/06 01:28:50;;;;;;;;;;;;;;;18.94;61.28;97002.34;2084632;28;19925;-64
2024/01/06 01:29:54;;;;;;;;;;;;;;;18.92;61.16;97008.00;2088310;28;20641;-65
2024/01/06 01:30:55;;;;;;;;;;;;;;;18.94;61.35;97000.50;2091392;28;19931;-65
2024/01/06 01:31:56;;;;;;;;;;;;;;;18.95;61.01;97009.38;2088829;28;20011;-65
2024/01/06 01:32:57;;;;;;;;;;;;;;;18.94;61.29;97010.41;2079680;28;19933;-65
2024/01/06 01:33:59;;;;;;;;;;;;;;;18.92;61.24;97009.88;2088834;28;20015;-64
2024/01/06 01:34:59;;;;;;;;;;;;;;;18.91;61.46;97005.53;2085673;28;19924;-65
2024/01/06 01:36:01;;;;;;;;;;;;;;;18.91;61.50;97009.03;2085921;28;19928;-65
2024/01/06 01:37:01;;;;;;;;;;;;;;;18.92;61.44;97013.38;2091986;28;19936;-65
2024/01/06 01:38:03;;;;;;;;;;;;;;;18.92;61.17;97005.31;2084594;28;19968;-65
2024/01/06 01:39:04;;;;;;;;;;;;;;;18.92;61.51;97005.31;2086269;28;19932;-65
2024/01/06 01:40:06;;;;;;;;;;;;;;;18.89;61.07;97000.44;2085768;28;19963;-65
2024/01/06 01:41:06;;;;;;;;;;;;;;;18.90;61.48;97004.72;2089101;28;19932;-65
2024/01/06 01:42:08;;;;;;;;;;;;;;;18.90;61.44;97007.41;2089179;28;19928;-65
2024/01/06 01:43:15;;;;;;;;;;;;;;;18.90;61.30;97003.91;2085397;28;19940;-65
2024/01/06 01:44:17;;;;;;;;;;;;;;;18.92;61.15;96996.44;2084495;28;20405;-64
2024/01/06 01:45:19;;;;;;;;;;;;;;;18.89;61.30;97005.81;2081119;28;19929;-64
2024/01/06 01:46:20;;;;;;;;;;;;;;;18.90;61.50;97012.78;2089118;28;19932;-65
2024/01/06 01:47:21;;;;;;;;;;;;;;;18.90;61.38;97007.41;2089929;28;19932;-65
2024/01/06 01:48:23;;;;;;;;;;;;;;;18.89;61.36;97011.19;2088191;28;19972;-65
2024/01/06 01:49:24;;;;;;;;;;;;;;;18.86;61.36;97008.97;2086534;28;21519;-65
2024/01/06 01:50:27;;;;;;;;;;;;;;;18.86;61.27;97006.28;2087766;28;19968;-64
2024/01/06 01:51:29;;;;;;;;;;;;;;;18.90;61.33;97012.78;2091352;28;19940;-64
2024/01/06 01:52:31;;;;;;;;;;;;;;;18.88;61.24;97014.91;2083501;28;19932;-64
2024/01/06 01:53:31;;;;;;;;;;;;;;;18.88;61.07;97014.91;2086515;28;19947;-64
2024/01/06 01:54:32;;;;;;;;;;;;;;;18.89;61.29;97005.81;2088700;28;19931;-65
2024/01/06 01:55:34;;;;;;;;;;;;;;;18.90;61.43;97011.97;2088086;28;19929;-65
2024/01/06 01:56:34;;;;;;;;;;;;;;;18.89;61.32;97011.19;2091518;28;19928;-65
2024/01/06 01:57:36;;;;;;;;;;;;;;;18.91;61.13;97014.41;2090885;28;19971;-64
2024/01/06 01:58:37;;;;;;;;;;;;;;;18.89;61.23;97011.19;2087920;28;19993;-64
2024/01/06 01:59:37;;;;;;;;;;;;;;;18.89;61.19;97005.81;2088096;28;20562;-65
2024/01/06 02:00:40;;;;;;;;;;;;;;;18.90;61.46;97007.41;2087237;28;19941;-64
2024/01/06 02:01:41;;;;;;;;;;;;;;;18.88;61.04;97009.53;2090292;28;19939;-64
2024/01/06 02:02:43;;;;;;;;;;;;;;;18.88;61.41;97004.16;2087230;28;20454;-64
2024/01/06 02:03:43;;;;;;;;;;;;;;;18.88;61.25;97004.16;2087637;28;19935;-65
2024/01/06 02:04:46;;;;;;;;;;;;;;;18.87;61.38;97007.91;2081786;28;19960;-65
2024/01/06 02:05:46;;;;;;;;;;;;;;;18.87;61.21;97007.09;2090154;28;19925;-65
2024/01/06 02:06:48;;;;;;;;;;;;;;;18.89;61.32;97011.19;2087579;28;19929;-64
2024/01/06 02:07:50;;;;;;;;;;;;;;;18.88;61.58;97014.91;2084279;28;19982;-65
2024/01/06 02:08:52;;;;;;;;;;;;;;;18.87;61.47;97012.47;2090182;28;20425;-65
2024/01/06 02:09:53;;;;;;;;;;;;;;;18.86;61.17;97008.97;2087324;28;19974;-65
2024/01/06 02:10:55;;;;;;;;;;;;;;;18.87;61.46;97001.72;2089575;28;19994;-65
2024/01/06 02:11:57;;;;;;;;;;;;;;;18.89;61.38;96995.06;2085171;28;19932;-65
2024/01/06 02:12:58;;;;;;;;;;;;;;;18.87;61.11;96999.03;2086818;28;19928;-65
2024/01/06 02:13:59;;;;;;;;;;;;;;;18.89;61.47;96999.63;2081168;28;20396;-65
2024/01/06 02:15:00;;;;;;;;;;;;;;;18.88;61.33;96998.78;2087904;28;19961;-65
2024/01/06 02:16:03;;;;;;;;;;;;;;;18.88;61.26;97004.16;2088429;28;19929;-64
2024/01/06 02:17:04;;;;;;;;;;;;;;;18.88;61.11;97004.16;2087176;28;19929;-64
2024/01/06 02:18:05;;;;;;;;;;;;;;;18.88;61.46;96998.78;2083961;28;19939;-65
2024/01/06 02:19:08;;;;;;;;;;;;;;;18.89;61.19;97005.81;2088620;28;19959;-64
2024/01/06 02:20:10;;;;;;;;;;;;;;;18.88;61.13;96992.59;2086849;28;20389;-65
2024/01/06 02:21:11;;;;;;;;;;;;;;;18.86;61.41;96995.56;2088187;28;20794;-64
2024/01/06 02:22:14;;;;;;;;;;;;;;;18.85;61.35;96999.28;2087621;28;19932;-65
2024/01/06 02:23:15;;;;;;;;;;;;;;;18.85;61.24;97004.66;2084918;28;19932;-64
2024/01/06 02:24:15;;;;;;;;;;;;;;;18.86;61.08;97000.91;2086830;28;20023;-65
2024/01/06 02:25:17;;;;;;;;;;;;;;;18.88;61.18;96992.59;2090331;28;19941;-64
2024/01/06 02:26:18;;;;;;;;;;;;;;;18.86;61.21;96994.72;2087760;28;19929;-64
2024/01/06 02:27:19;;;;;;;;;;;;;;;18.85;61.46;96998.47;2088440;28;19963;-65
2024/01/06 02:28:20;;;;;;;;;;;;;;;18.84;61.26;96997.66;2088691;28;19932;-64
2024/01/06 02:29:21;;;;;;;;;;;;;;;18.85;61.07;96998.47;2085668;28;20483;-65
2024/01/06 02:30:22;;;;;;;;;;;;;;;18.86;61.23;96997.41;2088626;28;19932;-65
2024/01/06 02:31:25;;;;;;;;;;;;;;;18.83;61.39;96996.00;2086696;28;20535;-65
2024/01/06 02:32:26;;;;;;;;;;;;;;;18.85;61.19;96993.09;2089319;28;20416;-65
2024/01/06 02:33:27;;;;;;;;;;;;;;;18.84;61.47;96996.84;2088055;28;20004;-65
2024/01/06 02:34:28;;;;;;;;;;;;;;;18.83;61.53;96993.31;2091134;28;19928;-60
2024/01/06 02:35:30;;;;;;;;;;;;;;;18.82;61.47;96990.91;2089798;28;19970;-64
2024/01/06 02:36:30;;;;;;;;;;;;;;;18.83;61.47;96993.31;2083914;28;19960;-64
2024/01/06 02:37:33;;;;;;;;;;;;;;;18.84;61.22;96991.47;2082613;28;20458;-65
2024/01/06 02:38:34;;;;;;;;;;;;;;;18.82;61.53;96989.03;2086107;28;21699;-64
2024/01/06 02:39:35;;;;;;;;;;;;;;;18.83;61.28;96981.78;2086378;28;20016;-64
2024/01/06 02:40:36;;;;;;;;;;;;;;;18.81;61.49;96984.72;2090038;28;19932;-64
2024/01/06 02:41:37;;;;;;;;;;;;;;;18.81;61.21;96979.34;2087297;28;19971;-65
2024/01/06 02:42:38;;;;;;;;;;;;;;;18.82;61.49;96980.16;2086861;28;19929;-64
2024/01/06 02:43:40;;;;;;;;;;;;;;;18.82;61.33;96977.47;2084076;28;19946;-65
2024/01/06 02:44:40;;;;;;;;;;;;;;;18.81;61.27;96971.28;2082378;28;19933;-64
2024/01/06 02:45:42;;;;;;;;;;;;;;;18.80;61.41;96971.53;2084709;28;20013;-65
2024/01/06 02:46:42;;;;;;;;;;;;;;;18.82;61.41;96969.41;2082409;28;20414;-64
2024/01/06 02:47:44;;;;;;;;;;;;;;;18.81;61.54;96973.16;2088321;28;20055;-65
2024/01/06 02:48:45;;;;;;;;;;;;;;;18.79;61.35;96970.72;2089326;28;19940;-64
2024/01/06 02:49:46;;;;;;;;;;;;;;;18.76;61.60;96965.84;2087654;28;19975;-65
2024/01/06 02:50:47;;;;;;;;;;;;;;;18.76;61.59;96960.47;2090049;28;19925;-65
2024/01/06 02:51:47;;;;;;;;;;;;;;;18.80;61.24;96952.72;2088881;28;20039;-65
2024/01/06 02:52:50;;;;;;;;;;;;;;;18.80;61.48;96955.41;2086465;28;20011;-65
2024/01/06 02:53:51;;;;;;;;;;;;;;;18.80;61.36;96950.84;2085399;28;19951;-65
2024/01/06 02:54:51;;;;;;;;;;;;;;;18.82;61.45;96955.97;2088077;28;20028;-65
2024/01/06 02:55:53;;;;;;;;;;;;;;;18.81;61.06;96955.19;2088629;28;20590;-65
2024/01/06 02:56:54;;;;;;;;;;;;;;;18.80;61.57;96950.84;2086710;28;21088;-65
2024/01/06 02:57:55;;;;;;;;;;;;;;;18.81;61.45;96957.88;2090290;28;20023;-65
2024/01/06 02:58:56;;;;;;;;;;;;;;;18.79;61.63;96946.53;2085558;28;20426;-65
2024/01/06 02:59:57;;;;;;;;;;;;;;;18.79;61.49;96951.91;2086200;28;20007;-64
2024/01/06 03:00:59;;;;;;;;;;;;;;;18.80;61.39;96953.53;2088898;28;19940;-65
2024/01/06 03:02:00;;;;;;;;;;;;;;;18.79;61.31;96951.91;2083659;28;19957;-65
2024/01/06 03:03:01;;;;;;;;;;;;;;;18.80;61.22;96950.84;2089333;28;20311;-65
2024/01/06 03:04:02;;;;;;;;;;;;;;;18.77;61.34;96945.16;2089725;28;19959;-65
2024/01/06 03:05:03;;;;;;;;;;;;;;;18.79;61.47;96948.41;2087244;28;20537;-65
2024/01/06 03:06:05;;;;;;;;;;;;;;;18.80;61.36;96950.03;2088967;28;20004;-67
2024/01/06 03:07:05;;;;;;;;;;;;;;;18.79;61.24;96935.78;2088962;28;19933;-64
2024/01/06 03:08:07;;;;;;;;;;;;;;;18.77;61.42;96937.09;2088491;28;20039;-65
2024/01/06 03:09:09;;;;;;;;;;;;;;;18.75;61.77;96940.03;2084874;28;20414;-65
2024/01/06 03:10:10;;;;;;;;;;;;;;;18.77;61.36;96943.28;2084182;28;19936;-64
2024/01/06 03:11:11;;;;;;;;;;;;;;;18.78;61.48;96944.09;2086153;28;19932;-65
2024/01/06 03:12:12;;;;;;;;;;;;;;;18.76;61.45;96944.34;2085783;28;20426;-66
2024/01/06 03:13:12;;;;;;;;;;;;;;;18.77;61.35;96937.91;2087558;28;20011;-65
2024/01/06 03:14:14;;;;;;;;;;;;;;;18.77;61.28;96931.72;2090274;28;20505;-65
2024/01/06 03:15:15;;;;;;;;;;;;;;;18.78;61.21;96936.88;2085191;28;19933;-66
2024/01/06 03:16:16;;;;;;;;;;;;;;;18.78;61.34;96939.56;2088525;28;20015;-65
2024/01/06 03:17:17;;;;;;;;;;;;;;;18.78;61.33;96939.56;2088326;28;19928;-65
2024/01/06 03:18:18;;;;;;;;;;;;;;;18.77;61.14;96932.53;2087825;28;19960;-65
2024/01/06 03:19:19;;;;;;;;;;;;;;;18.80;61.30;96936.59;2089318;28;19944;-65
2024/01/06 03:20:20;;;;;;;;;;;;;;;18.78;61.17;96936.03;2086492;28;20012;-65
2024/01/06 03:21:21;;;;;;;;;;;;;;;18.80;61.50;96939.28;2086099;28;20735;-65
2024/01/06 03:22:22;;;;;;;;;;;;;;;18.78;61.22;96946.78;2086921;28;19925;-65
2024/01/06 03:23:25;;;;;;;;;;;;;;;18.81;61.57;96946.31;2087297;28;19995;-65
2024/01/06 03:24:26;;;;;;;;;;;;;;;18.79;61.08;96949.22;2089833;28;19928;-65
2024/01/06 03:25:28;;;;;;;;;;;;;;;18.80;61.34;96947.34;2088065;28;19928;-65
2024/01/06 03:26:29;;;;;;;;;;;;;;;18.76;61.24;96952.41;2086519;28;19947;-65
2024/01/06 03:27:30;;;;;;;;;;;;;;;18.76;61.12;96949.72;2076586;28;19980;-65
2024/01/06 03:28:31;;;;;;;;;;;;;;;18.75;61.33;96948.09;2081095;28;20023;-65
2024/01/06 03:29:32;;;;;;;;;;;;;;;18.77;61.37;96951.34;2081504;28;19936;-65
2024/01/06 03:30:33;;;;;;;;;;;;;;;18.75;61.49;96956.16;2080991;28;19935;-65
2024/01/06 03:31:34;;;;;;;;;;;;;;;18.75;61.28;96945.41;2080328;28;19972;-65
2024/01/06 03:32:35;;;;;;;;;;;;;;;18.77;61.42;96947.84;2078900;28;20016;-65
2024/01/06 03:33:36;;;;;;;;;;;;;;;18.75;61.45;96948.91;2078011;28;19929;-65
2024/01/06 03:34:37;;;;;;;;;;;;;;;18.75;61.26;96945.41;2077310;28;19960;-65
2024/01/06 03:35:38;;;;;;;;;;;;;;;18.74;61.33;96949.94;2080605;28;19929;-65
2024/01/06 03:36:40;;;;;;;;;;;;;;;18.76;60.98;96941.66;2076901;28;19979;-65
2024/01/06 03:37:41;;;;;;;;;;;;;;;18.76;61.45;96947.03;2079186;28;19929;-65
2024/01/06 03:38:44;;;;;;;;;;;;;;;18.76;61.16;96949.72;2079839;28;19986;-66
2024/01/06 03:39:44;;;;;;;;;;;;;;;18.75;61.49;96948.91;2079831;28;19931;-65
2024/01/06 03:40:46;;;;;;;;;;;;;;;18.76;61.19;96949.72;2077326;28;19975;-65
2024/01/06 03:41:48;;;;;;;;;;;;;;;18.75;61.55;96950.78;2076876;28;20414;-65
2024/01/06 03:42:50;;;;;;;;;;;;;;;18.75;61.46;96948.09;2075963;28;19924;-65
2024/01/06 03:43:51;;;;;;;;;;;;;;;18.75;61.44;96956.16;2080556;28;19933;-65
2024/01/06 03:44:52;;;;;;;;;;;;;;;18.77;61.17;96953.22;2081816;28;20599;-65
2024/01/06 03:45:55;;;;;;;;;;;;;;;18.76;61.20;96957.78;2081865;28;20359;-65
2024/01/06 03:46:57;;;;;;;;;;;;;;;18.76;61.41;96957.78;2077555;28;19929;-65
2024/01/06 03:47:57;;;;;;;;;;;;;;;18.75;61.21;96953.47;2078709;28;19929;-65
2024/01/06 03:48:59;;;;;;;;;;;;;;;18.74;61.22;96946.47;2080226;28;19925;-65
2024/01/06 03:50:00;;;;;;;;;;;;;;;18.74;61.13;96943.78;2080121;28;20392;-66
2024/01/06 03:51:01;;;;;;;;;;;;;;;18.75;61.30;96940.03;2082720;28;20055;-65
2024/01/06 03:52:02;;;;;;;;;;;;;;;18.73;61.04;96942.13;2079730;28;19936;-65
2024/01/06 03:53:04;;;;;;;;;;;;;;;18.75;61.08;96945.41;2078244;28;19929;-65
2024/01/06 03:54:06;;;;;;;;;;;;;;;18.73;61.39;96939.44;2074840;28;19933;-65
2024/01/06 03:55:08;;;;;;;;;;;;;;;18.73;61.53;96937.56;2079590;28;19979;-65
2024/01/06 03:56:08;;;;;;;;;;;;;;;18.76;61.15;96938.97;2081835;28;19925;-65
2024/01/06 03:57:10;;;;;;;;;;;;;;;18.74;61.52;96939.22;2081167;28;19964;-66
2024/01/06 03:58:11;;;;;;;;;;;;;;;18.75;61.10;96935.47;2078727;28;19932;-65
2024/01/06 03:59:12;;;;;;;;;;;;;;;18.75;61.32;96940.84;2080059;28;19979;-65
2024/01/06 04:00:13;;;;;;;;;;;;;;;18.74;61.01;96933.03;2075876;28;19936;-65
2024/01/06 04:01:14;;;;;;;;;;;;;;;18.74;61.33;96933.84;2080021;28;19932;-65
2024/01/06 04:02:15;;;;;;;;;;;;;;;18.76;61.03;96936.28;2077911;28;19933;-65
2024/01/06 04:03:16;;;;;;;;;;;;;;;18.75;61.06;96940.84;2081432;28;19933;-65
2024/01/06 04:04:18;;;;;;;;;;;;;;;18.78;61.05;96941.41;2074001;28;20475;-64
2024/01/06 04:05:18;;;;;;;;;;;;;;;18.80;61.02;96942.78;2079287;28;19932;-65
2024/01/06 04:06:20;;;;;;;;;;;;;;;18.81;61.20;96941.75;2078716;28;20541;-64
2024/01/06 04:07:20;;;;;;;;;;;;;;;18.84;61.16;96935.88;2079572;28;19932;-65
2024/01/06 04:08:22;;;;;;;;;;;;;;;18.84;60.95;96937.75;2078907;28;20020;-65
2024/01/06 04:09:24;;;;;;;;;;;;;;;18.85;61.11;96932.13;2075838;28;20442;-65
2024/01/06 04:10:26;;;;;;;;;;;;;;;18.88;60.86;96933.50;2075667;28;20027;-65
2024/01/06 04:11:26;;;;;;;;;;;;;;;18.88;60.81;96941.56;2076062;28;19929;-65
2024/01/06 04:12:28;;;;;;;;;;;;;;;18.89;60.84;96946.69;2079549;28;19932;-65
2024/01/06 04:13:28;;;;;;;;;;;;;;;18.90;61.10;96937.56;2085936;28;19935;-64
2024/01/06 04:14:30;;;;;;;;;;;;;;;18.93;60.85;96938.94;2079666;28;20012;-64
2024/01/06 04:15:31;;;;;;;;;;;;;;;18.95;60.72;96939.53;2077971;28;19932;-65
2024/01/06 04:16:32;;;;;;;;;;;;;;;18.96;60.94;96941.94;2080749;28;20016;-65
2024/01/06 04:17:33;;;;;;;;;;;;;;;19.00;61.03;96941.47;2068254;28;19940;-65
2024/01/06 04:18:33;;;;;;;;;;;;;;;19.02;60.61;96942.03;2077728;28;20012;-65
2024/01/06 04:19:35;;;;;;;;;;;;;;;19.04;60.87;96942.59;2073722;28;20579;-65
2024/01/06 04:20:36;;;;;;;;;;;;;;;19.05;60.81;96941.53;2077853;28;19925;-65
2024/01/06 04:21:37;;;;;;;;;;;;;;;19.05;61.14;96944.22;2073398;28;19929;-65
2024/01/06 04:22:38;;;;;;;;;;;;;;;19.07;60.83;96942.09;2079943;28;20035;-65
2024/01/06 04:23:39;;;;;;;;;;;;;;;19.09;60.83;96931.94;2076539;28;19928;-65
2024/01/06 04:24:42;;;;;;;;;;;;;;;19.09;60.99;96931.94;2077883;28;20370;-65
2024/01/06 04:25:43;;;;;;;;;;;;;;;19.10;60.81;96933.53;2077198;28;20295;-65
2024/01/06 04:26:45;;;;;;;;;;;;;;;19.10;60.63;96923.59;2079390;28;20023;-65
2024/01/06 04:27:46;;;;;;;;;;;;;;;19.11;60.73;96933.31;2077982;28;19925;-65
2024/01/06 04:28:48;;;;;;;;;;;;;;;19.14;60.63;96921.25;2079553;28;20453;-65
2024/01/06 04:29:52;;;;;;;;;;;;;;;19.14;60.80;96923.94;2079446;28;19933;-65
2024/01/06 04:30:55;;;;;;;;;;;;;;;19.13;60.73;96925.00;2077842;28;19925;-65
2024/01/06 04:31:55;;;;;;;;;;;;;;;19.14;61.03;96932.81;2077807;28;19925;-65
2024/01/06 04:32:57;;;;;;;;;;;;;;;19.13;60.93;96927.66;2080450;28;20429;-65
2024/01/06 04:33:58;;;;;;;;;;;;;;;19.15;61.05;96934.44;2075428;28;19968;-66
2024/01/06 04:34:59;;;;;;;;;;;;;;;19.14;61.21;96927.44;2077394;28;19929;-65
2024/01/06 04:36:01;;;;;;;;;;;;;;;19.15;61.04;96928.25;2074910;28;19929;-65
2024/01/06 04:37:03;;;;;;;;;;;;;;;19.17;60.98;96926.13;2078542;28;19932;-65
2024/01/06 04:38:03;;;;;;;;;;;;;;;19.15;61.02;96929.06;2072158;28;19932;-65
2024/01/06 04:39:05;;;;;;;;;;;;;;;19.16;61.14;96913.75;2079680;28;19964;-65
2024/01/06 04:40:08;;;;;;;;;;;;;;;19.15;60.79;96918.31;2075134;28;19940;-65
2024/01/06 04:41:09;;;;;;;;;;;;;;;19.17;61.08;96912.69;2076770;28;20354;-65
2024/01/06 04:42:10;;;;;;;;;;;;;;;19.16;61.10;96897.63;2081139;28;19925;-65
2024/01/06 04:43:12;;;;;;;;;;;;;;;19.17;61.04;96899.25;2079924;28;20442;-65
2024/01/06 04:44:12;;;;;;;;;;;;;;;19.17;60.95;96894.69;2076900;28;19958;-65
2024/01/06 04:45:14;;;;;;;;;;;;;;;19.16;61.08;96897.63;2079087;28;20360;-65
2024/01/06 04:46:14;;;;;;;;;;;;;;;19.16;61.22;96903.00;2080470;28;19933;-65
2024/01/06 04:47:16;;;;;;;;;;;;;;;19.17;61.15;96897.38;2077087;28;19975;-65
2024/01/06 04:48:17;;;;;;;;;;;;;;;19.17;61.21;96885.81;2079487;28;19929;-65
2024/01/06 04:49:18;;;;;;;;;;;;;;;19.18;61.17;96882.88;2077489;28;19979;-65
2024/01/06 04:50:19;;;;;;;;;;;;;;;19.17;61.12;96899.25;2079826;28;20210;-65
2024/01/06 04:51:20;;;;;;;;;;;;;;;19.19;61.00;96903.31;2084146;28;19968;-65
2024/01/06 04:52:21;;;;;;;;;;;;;;;19.18;61.11;96890.94;2082360;28;19956;-65
2024/01/06 04:53:22;;;;;;;;;;;;;;;19.16;60.93;96892.25;2078784;28;19932;-65
2024/01/06 04:54:23;;;;;;;;;;;;;;;19.18;61.20;96887.44;2081094;28;20724;-65
2024/01/06 04:55:25;;;;;;;;;;;;;;;19.17;60.86;96881.25;2079673;28;19932;-66
2024/01/06 04:56:26;;;;;;;;;;;;;;;19.16;61.08;96881.50;2081420;28;19972;-65
2024/01/06 04:57:27;;;;;;;;;;;;;;;19.16;61.25;96878.81;2078006;28;19936;-65
2024/01/06 04:58:29;;;;;;;;;;;;;;;19.16;61.30;96881.50;2080452;28;20028;-65
2024/01/06 04:59:29;;;;;;;;;;;;;;;19.18;60.93;96879.38;2079535;28;19932;-65
2024/01/06 05:00:31;;;;;;;;;;;;;;;19.17;61.21;96875.06;2079851;28;20035;-65
2024/01/06 05:01:31;;;;;;;;;;;;;;;19.17;61.20;96883.94;2083006;28;19933;-65
2024/01/06 05:02:33;;;;;;;;;;;;;;;19.17;60.86;96883.94;2081292;28;19928;-65
2024/01/06 05:03:34;;;;;;;;;;;;;;;19.16;60.90;96889.56;2071783;28;20392;-65
2024/01/06 05:04:35;;;;;;;;;;;;;;;19.16;60.84;96878.81;2079595;28;20008;-65
2024/01/06 05:05:36;;;;;;;;;;;;;;;19.16;60.99;96886.88;2084261;28;19936;-65
2024/01/06 05:06:38;;;;;;;;;;;;;;;19.14;61.27;96881.75;2079366;28;19968;-65
2024/01/06 05:07:38;;;;;;;;;;;;;;;19.13;60.91;96880.09;2081946;28;20332;-65
2024/01/06 05:08:44;;;;;;;;;;;;;;;19.14;61.05;96876.38;2081031;28;19968;-65
2024/01/06 05:09:44;;;;;;;;;;;;;;;19.15;61.33;96877.19;2075301;28;19936;-65
2024/01/06 05:10:48;;;;;;;;;;;;;;;19.15;61.33;96871.81;2077496;28;19935;-65
2024/01/06 05:11:48;;;;;;;;;;;;;;;19.15;61.10;96878.00;2076333;28;19939;-65
2024/01/06 05:12:50;;;;;;;;;;;;;;;19.16;61.10;96876.13;2076257;28;20543;-65
2024/01/06 05:13:50;;;;;;;;;;;;;;;19.17;60.81;96877.75;2076668;28;19940;-65
2024/01/06 05:14:52;;;;;;;;;;;;;;;19.18;61.02;96880.19;2078465;28;20513;-66
2024/01/06 05:15:52;;;;;;;;;;;;;;;19.17;60.84;96869.69;2078706;28;19929;-65
2024/01/06 05:16:54;;;;;;;;;;;;;;;19.18;61.04;96871.31;2080011;28;19963;-65
2024/01/06 05:17:55;;;;;;;;;;;;;;;19.18;60.97;96868.63;2079017;28;19936;-65
2024/01/06 05:18:56;;;;;;;;;;;;;;;19.18;60.93;96872.13;2079810;28;19968;-65
2024/01/06 05:19:57;;;;;;;;;;;;;;;19.19;60.97;96870.22;2081860;28;19924;-65